Time;durP1;ratioP1;P1;durP2;ratioP2;P2;SDS_P1;SDS_P2;PMS_P1;PMS_P2;Temp;Humidity;BMP_temperature;BMP_pressure;BME280_temperature;BME280_humidity;BME280_pressure;Samples;Min_cycle;Max_cycle;Signal;HPM_P1;HPM_P2
2022/09/17 00:01:18;;;;;;;;;;;;;;;18.80;62.93;99058.00;4429673;32;19986;-84
2022/09/17 00:03:55;;;;;;;;;;;;;;;18.75;63.03;99058.13;4429680;32;19974;-83
2022/09/17 00:06:22;;;;;;;;;;;;;;;18.63;63.63;99062.84;4429098;32;20048;-88
2022/09/17 00:08:52;;;;;;;;;;;;;;;18.78;62.78;99065.03;4429379;32;20791;-82
2022/09/17 00:11:20;;;;;;;;;;;;;;;18.83;62.87;99065.78;4429332;32;19966;-83
2022/09/17 00:13:48;;;;;;;;;;;;;;;18.90;62.53;99058.59;4428739;32;19978;-83
2022/09/17 00:16:22;;;;;;;;;;;;;;;18.76;62.86;99052.00;4428008;32;19989;-84
2022/09/17 00:18:49;;;;;;;;;;;;;;;18.52;63.52;99061.41;4429078;32;20740;-84
2022/09/17 00:21:17;;;;;;;;;;;;;;;18.67;62.72;99054.00;4428960;32;19994;-82
2022/09/17 00:23:44;;;;;;;;;;;;;;;18.34;64.58;99056.66;4426316;32;20031;-80
2022/09/17 00:26:10;;;;;;;;;;;;;;;18.32;64.49;99050.63;4429680;32;20105;-84
2022/09/17 00:28:40;;;;;;;;;;;;;;;18.42;64.20;99052.09;4428670;32;20004;-80
2022/09/17 00:31:08;;;;;;;;;;;;;;;18.58;63.47;99050.72;4428915;32;20011;-81
2022/09/17 00:33:34;;;;;;;;;;;;;;;18.62;63.29;99042.78;4428935;32;19974;-81
2022/09/17 00:36:02;;;;;;;;;;;;;;;18.43;64.77;99035.44;4429589;32;19985;-85
2022/09/17 00:38:29;;;;;;;;;;;;;;;18.63;63.22;99040.09;4429419;32;20039;-80
2022/09/17 00:40:55;;;;;;;;;;;;;;;18.61;63.19;99025.34;4428509;32;20017;-79
2022/09/17 00:43:32;;;;;;;;;;;;;;;18.61;63.25;99014.88;4428957;32;19989;-80
2022/09/17 00:45:58;;;;;;;;;;;;;;;18.44;64.00;99018.84;4429664;32;19994;-85
2022/09/17 00:48:26;;;;;;;;;;;;;;;18.55;64.12;99022.00;4424303;32;19996;-82
2022/09/17 00:50:53;;;;;;;;;;;;;;;18.48;64.07;99004.75;4428809;32;19988;-80
2022/09/17 00:53:20;;;;;;;;;;;;;;;18.55;63.70;99005.41;4426955;32;20020;-81
2022/09/17 00:55:48;;;;;;;;;;;;;;;18.44;64.52;99002.22;4398591;32;19997;-80
2022/09/17 00:58:15;;;;;;;;;;;;;;;18.45;64.32;99004.81;4396784;32;19986;-82
2022/09/17 01:00:42;;;;;;;;;;;;;;;18.35;64.82;99001.63;4397043;32;20823;-80
2022/09/17 01:03:09;;;;;;;;;;;;;;;18.71;62.98;98995.31;4396373;32;19982;-80
2022/09/17 01:05:44;;;;;;;;;;;;;;;18.57;63.28;98988.75;4397972;32;20006;-80
2022/09/17 01:08:24;;;;;;;;;;;;;;;18.56;63.71;99002.72;4398441;32;20005;-85
2022/09/17 01:11:11;;;;;;;;;;;;;;;18.63;62.70;99000.78;4396264;32;19982;-80
2022/09/17 01:14:04;;;;;;;;;;;;;;;18.46;63.80;99005.69;4398499;32;19995;-81
2022/09/17 01:16:50;;;;;;;;;;;;;;;18.51;63.44;98999.41;4396274;32;19985;-81
2022/09/17 01:19:32;;;;;;;;;;;;;;;18.50;63.76;98991.56;4398008;32;20454;-81
2022/09/17 01:22:11;;;;;;;;;;;;;;;18.35;64.42;98992.91;4398413;32;20358;-81
2022/09/17 01:25:07;;;;;;;;;;;;;;;18.39;64.13;99007.63;4396095;32;20363;-82
2022/09/17 01:27:40;;;;;;;;;;;;;;;18.49;63.94;99011.69;4379017;32;19994;-82
2022/09/17 01:30:11;;;;;;;;;;;;;;;18.61;63.08;99004.38;4381227;32;20029;-81
2022/09/17 01:32:44;;;;;;;;;;;;;;;18.36;64.20;99021.66;4368896;32;20032;-81
2022/09/17 01:35:18;;;;;;;;;;;;;;;18.29;64.65;99014.88;4383594;32;19982;-81
2022/09/17 01:38:01;;;;;;;;;;;;;;;18.18;64.96;99026.56;4394696;32;20340;-81
2022/09/17 01:40:31;;;;;;;;;;;;;;;18.08;65.16;99037.28;4383470;32;20038;-81
2022/09/17 01:42:58;;;;;;;;;;;;;;;18.21;64.79;99037.81;4383752;32;19978;-84
2022/09/17 01:45:26;;;;;;;;;;;;;;;18.57;62.87;99038.53;4412523;32;19973;-84
2022/09/17 01:48:13;;;;;;;;;;;;;;;18.51;62.25;99049.19;4429399;32;19985;-85
2022/09/17 01:50:42;;;;;;;;;;;;;;;18.38;62.44;99045.22;4425000;32;20514;-81
2022/09/17 01:53:09;;;;;;;;;;;;;;;18.41;62.60;99047.75;4415584;32;19981;-82
2022/09/17 01:55:37;;;;;;;;;;;;;;;18.23;63.31;99045.66;4414559;32;20364;-81
2022/09/17 01:58:17;;;;;;;;;;;;;;;18.30;62.90;99041.94;4416131;32;20752;-85
2022/09/17 02:00:46;;;;;;;;;;;;;;;18.39;61.75;99041.69;4415795;32;19978;-80
2022/09/17 02:03:37;;;;;;;;;;;;;;;18.11;63.13;99042.44;4416492;32;21247;-81
2022/09/17 02:06:08;;;;;;;;;;;;;;;18.32;62.09;99029.66;4422594;32;19986;-83
2022/09/17 02:08:36;;;;;;;;;;;;;;;18.25;62.94;99038.59;4430448;32;19993;-84
2022/09/17 02:11:16;;;;;;;;;;;;;;;18.18;62.23;99027.41;4416080;32;20043;-84
2022/09/17 02:13:46;;;;;;;;;;;;;;;18.19;62.52;99023.03;4416139;32;19985;-81
2022/09/17 02:16:26;;;;;;;;;;;;;;;18.22;61.81;99017.72;4416331;32;20341;-81
2022/09/17 02:19:09;;;;;;;;;;;;;;;18.18;61.88;99026.56;4404075;32;19977;-82
2022/09/17 02:21:39;;;;;;;;;;;;;;;18.16;62.21;99023.16;4429691;32;19985;-84
2022/09/17 02:24:12;;;;;;;;;;;;;;;17.90;62.88;99027.34;4430399;32;20697;-85
2022/09/17 02:26:40;;;;;;;;;;;;;;;18.05;62.52;99020.81;4430196;32;20005;-80
2022/09/17 02:29:09;;;;;;;;;;;;;;;18.07;62.29;99030.34;4416013;32;20438;-81
2022/09/17 02:31:35;;;;;;;;;;;;;;;18.17;62.04;99024.84;4384734;32;20320;-81
2022/09/17 02:34:02;;;;;;;;;;;;;;;18.06;62.20;99020.78;4400843;32;20001;-83
2022/09/17 02:36:31;;;;;;;;;;;;;;;17.80;63.17;99015.38;4400818;32;19985;-82
2022/09/17 02:38:59;;;;;;;;;;;;;;;18.20;61.84;99016.91;4414915;32;20327;-80
2022/09/17 02:41:32;;;;;;;;;;;;;;;17.98;62.26;99008.78;4414825;32;20362;-83
2022/09/17 02:44:01;;;;;;;;;;;;;;;17.94;62.49;99002.78;4391820;32;19982;-85
2022/09/17 02:46:41;;;;;;;;;;;;;;;18.07;62.10;99004.16;4407151;32;19985;-82
2022/09/17 02:49:12;;;;;;;;;;;;;;;18.03;62.40;99002.53;4427832;32;20690;-81
2022/09/17 02:51:56;;;;;;;;;;;;;;;18.04;62.36;98996.38;4426588;32;19990;-82
2022/09/17 02:54:25;;;;;;;;;;;;;;;17.99;62.30;98997.41;4429434;32;20345;-85
2022/09/17 02:57:07;;;;;;;;;;;;;;;17.69;63.29;98991.22;4415797;32;19981;-85
2022/09/17 02:59:36;;;;;;;;;;;;;;;18.03;61.80;98981.59;4429729;32;19989;-81
2022/09/17 03:02:08;;;;;;;;;;;;;;;17.80;61.44;98989.19;4430489;32;19973;-82
2022/09/17 03:04:35;;;;;;;;;;;;;;;17.96;60.88;98977.38;4428652;32;19969;-86
2022/09/17 03:07:07;;;;;;;;;;;;;;;18.11;60.07;98971.72;4428616;32;19989;-81
2022/09/17 03:09:34;;;;;;;;;;;;;;;17.73;61.63;98967.53;4428127;32;20092;-82
2022/09/17 03:12:01;;;;;;;;;;;;;;;17.91;60.82;98960.12;4429862;32;19977;-85
2022/09/17 03:14:28;;;;;;;;;;;;;;;17.72;61.86;98964.97;4428578;32;19988;-85
2022/09/17 03:16:56;;;;;;;;;;;;;;;17.89;61.42;98950.53;4430103;32;19993;-83
2022/09/17 03:19:23;;;;;;;;;;;;;;;17.81;61.77;98949.03;4429845;32;19997;-83
2022/09/17 03:21:50;;;;;;;;;;;;;;;17.74;61.93;98923.88;4429795;32;19982;-84
2022/09/17 03:24:17;;;;;;;;;;;;;;;17.79;61.19;98927.28;4428804;32;19981;-86
2022/09/17 03:26:46;;;;;;;;;;;;;;;17.86;61.64;98915.72;4430081;32;20000;-83
2022/09/17 03:29:12;;;;;;;;;;;;;;;17.77;61.24;98915.97;4429389;32;19985;-86
2022/09/17 03:31:40;;;;;;;;;;;;;;;17.72;61.90;98910.00;4396502;32;19997;-82
2022/09/17 03:34:07;;;;;;;;;;;;;;;17.66;62.38;98904.03;4399539;32;20013;-84
2022/09/17 03:36:34;;;;;;;;;;;;;;;18.01;60.23;98889.09;4399291;32;19994;-83
2022/09/17 03:39:01;;;;;;;;;;;;;;;17.78;60.86;98876.69;4398707;32;19994;-81
2022/09/17 03:41:27;;;;;;;;;;;;;;;17.91;59.54;98878.94;4399461;32;20324;-80
2022/09/17 03:43:54;;;;;;;;;;;;;;;17.84;60.09;98880.87;4398841;32;19982;-85
2022/09/17 03:46:21;;;;;;;;;;;;;;;17.85;59.94;98887.84;4398916;32;19990;-82
2022/09/17 03:48:48;;;;;;;;;;;;;;;17.67;60.22;98887.41;4398536;32;20012;-83
2022/09/17 03:51:15;;;;;;;;;;;;;;;17.76;59.44;98888.06;4399076;32;20011;-80
2022/09/17 03:53:42;;;;;;;;;;;;;;;17.70;59.19;98893.47;4398554;32;20005;-80
2022/09/17 03:56:09;;;;;;;;;;;;;;;17.63;59.65;98891.00;4398845;32;19991;-79
2022/09/17 03:58:35;;;;;;;;;;;;;;;17.86;58.08;98889.53;4398401;32;20005;-82
2022/09/17 04:01:03;;;;;;;;;;;;;;;17.30;59.77;98899.81;4397396;32;20081;-80
2022/09/17 04:03:31;;;;;;;;;;;;;;;17.46;59.57;98900.25;4399025;32;19994;-81
2022/09/17 04:05:58;;;;;;;;;;;;;;;17.47;59.01;98910.66;4399424;32;19994;-85
2022/09/17 04:08:25;;;;;;;;;;;;;;;17.61;58.19;98921.63;4399112;32;19986;-84
2022/09/17 04:10:53;;;;;;;;;;;;;;;17.54;58.77;98925.28;4399177;32;20608;-81
2022/09/17 04:13:19;;;;;;;;;;;;;;;17.24;60.42;98915.66;4399048;32;19982;-83
2022/09/17 04:15:46;;;;;;;;;;;;;;;17.34;59.06;98911.87;4385360;32;20020;-82
2022/09/17 04:18:14;;;;;;;;;;;;;;;17.40;59.01;98901.25;4384307;32;20299;-85
2022/09/17 04:20:41;;;;;;;;;;;;;;;17.45;58.64;98899.38;4390899;32;20024;-87
2022/09/17 04:23:11;;;;;;;;;;;;;;;17.43;58.32;98888.09;4099518;32;10000739;-85
2022/09/17 04:25:38;;;;;;;;;;;;;;;17.65;56.95;98881.37;4429352;32;19986;-84
2022/09/17 04:28:05;;;;;;;;;;;;;;;17.67;56.65;98884.78;4429655;32;20352;-86
2022/09/17 04:30:33;;;;;;;;;;;;;;;17.49;57.17;98880.09;4428774;32;20035;-86
2022/09/17 04:33:00;;;;;;;;;;;;;;;17.51;56.69;98886.13;4429818;32;20508;-89
2022/09/17 04:35:27;;;;;;;;;;;;;;;17.07;58.57;98887.28;4404652;32;19977;-84
2022/09/17 04:37:54;;;;;;;;;;;;;;;17.20;58.00;98884.34;4427977;32;19982;-89
2022/09/17 04:40:22;;;;;;;;;;;;;;;17.09;58.53;98881.13;4428532;32;19982;-83
2022/09/17 04:42:55;;;;;;;;;;;;;;;16.95;59.76;98883.25;4429215;32;20048;-83
2022/09/17 04:45:22;;;;;;;;;;;;;;;17.20;58.55;98873.87;4429250;32;19984;-81
2022/09/17 04:47:52;;;;;;;;;;;;;;;16.97;59.06;98878.81;4428367;32;20031;-79
2022/09/17 04:50:18;;;;;;;;;;;;;;;16.94;59.03;98887.63;4429371;32;20012;-83
2022/09/17 04:52:46;;;;;;;;;;;;;;;17.03;58.64;98891.75;4428346;32;19982;-81
2022/09/17 04:55:13;;;;;;;;;;;;;;;17.00;58.57;98876.12;4427684;32;19996;-82
2022/09/17 04:57:47;;;;;;;;;;;;;;;16.89;58.99;98883.41;4428897;32;20024;-83
2022/09/17 05:00:16;;;;;;;;;;;;;;;17.07;58.57;98877.72;4425837;32;19981;-85
2022/09/17 05:02:44;;;;;;;;;;;;;;;17.05;58.22;98874.28;4413297;32;19982;-79
2022/09/17 05:05:10;;;;;;;;;;;;;;;17.01;58.29;98872.66;4429064;32;20025;-78
2022/09/17 05:07:38;;;;;;;;;;;;;;;16.77;60.29;98873.25;4424582;32;20011;-78
2022/09/17 05:10:06;;;;;;;;;;;;;;;16.84;59.81;98880.03;4437747;32;20004;-81
2022/09/17 05:12:32;;;;;;;;;;;;;;;16.81;59.76;98880.09;4430108;32;20067;-86
2022/09/17 05:15:00;;;;;;;;;;;;;;;16.85;58.96;98887.00;4430024;32;19978;-84
2022/09/17 05:17:28;;;;;;;;;;;;;;;17.07;58.51;98898.63;4428717;32;19994;-78
2022/09/17 05:19:55;;;;;;;;;;;;;;;16.74;60.38;98900.28;4430211;32;19985;-88
2022/09/17 05:22:24;;;;;;;;;;;;;;;17.17;57.75;98900.12;4429991;32;20056;-87
2022/09/17 05:24:50;;;;;;;;;;;;;;;16.81;59.67;98903.63;4430830;32;20019;-83
2022/09/17 05:27:18;;;;;;;;;;;;;;;17.04;58.43;98913.50;4430429;32;20009;-78
2022/09/17 05:29:45;;;;;;;;;;;;;;;17.09;58.46;98922.97;4430219;32;19981;-84
2022/09/17 05:32:12;;;;;;;;;;;;;;;17.30;57.33;98925.97;4429660;32;19997;-84
2022/09/17 05:34:39;;;;;;;;;;;;;;;17.20;57.82;98931.41;4426069;32;20095;-78
2022/09/17 05:37:08;;;;;;;;;;;;;;;17.25;57.46;98938.28;4418147;32;20002;-78
2022/09/17 05:39:35;;;;;;;;;;;;;;;17.31;57.51;98943.34;4418021;32;20006;-77
2022/09/17 05:42:04;;;;;;;;;;;;;;;17.32;57.24;98929.38;4413383;32;20867;-80
2022/09/17 05:44:34;;;;;;;;;;;;;;;17.22;58.41;98933.13;4404876;32;19978;-81
2022/09/17 05:47:01;;;;;;;;;;;;;;;17.28;57.88;98935.59;4412756;32;20445;-79
2022/09/17 05:49:27;;;;;;;;;;;;;;;17.20;57.95;98935.78;4414552;32;20001;-79
2022/09/17 05:51:55;;;;;;;;;;;;;;;17.11;58.51;98947.34;4415443;32;20005;-79
2022/09/17 05:54:21;;;;;;;;;;;;;;;17.15;58.18;98946.34;4413729;32;19986;-79
2022/09/17 05:56:51;;;;;;;;;;;;;;;16.84;59.57;98950.59;4414627;32;20008;-79
2022/09/17 05:59:18;;;;;;;;;;;;;;;17.10;58.23;98945.62;4398988;32;19986;-82
2022/09/17 06:01:45;;;;;;;;;;;;;;;17.05;58.91;98944.88;4403029;32;19986;-79
2022/09/17 06:04:12;;;;;;;;;;;;;;;16.84;58.89;98958.44;4414576;32;20000;-85
2022/09/17 06:06:40;;;;;;;;;;;;;;;17.14;57.71;98957.72;4413269;32;20002;-85
2022/09/17 06:09:07;;;;;;;;;;;;;;;16.95;58.85;98966.91;4399228;32;19994;-85
2022/09/17 06:11:37;;;;;;;;;;;;;;;16.98;58.91;98966.00;4395369;32;20027;-79
2022/09/17 06:14:04;;;;;;;;;;;;;;;16.94;59.06;98959.94;4416579;32;20006;-83
2022/09/17 06:16:31;;;;;;;;;;;;;;;17.07;57.98;98945.69;4430152;32;20009;-81
2022/09/17 06:18:58;;;;;;;;;;;;;;;17.13;57.65;98940.31;4429639;32;20004;-81
2022/09/17 06:21:25;;;;;;;;;;;;;;;16.90;59.23;98947.84;4429092;32;19997;-79
2022/09/17 06:23:52;;;;;;;;;;;;;;;16.72;60.44;98955.22;4430338;32;20847;-81
2022/09/17 06:26:19;;;;;;;;;;;;;;;16.82;59.35;98960.25;4430265;32;19989;-87
2022/09/17 06:28:46;;;;;;;;;;;;;;;16.93;59.30;98958.25;4430284;32;19989;-82
2022/09/17 06:31:12;;;;;;;;;;;;;;;17.10;58.04;98961.31;4429266;32;19997;-79
2022/09/17 06:33:40;;;;;;;;;;;;;;;16.94;58.22;98965.16;4429956;32;19977;-80
2022/09/17 06:36:09;;;;;;;;;;;;;;;17.13;57.68;98961.25;4427198;32;19978;-81
2022/09/17 06:38:40;;;;;;;;;;;;;;;17.19;57.26;98971.53;4418925;32;20774;-80
2022/09/17 06:41:07;;;;;;;;;;;;;;;17.10;57.73;98970.91;4274810;32;5004009;-80
2022/09/17 06:43:34;;;;;;;;;;;;;;;17.18;58.04;98975.03;4428283;32;20031;-83
2022/09/17 06:46:05;;;;;;;;;;;;;;;17.03;58.22;98975.41;4428298;32;20751;-88
2022/09/17 06:48:33;;;;;;;;;;;;;;;17.00;58.84;98977.25;4421905;32;20260;-88
2022/09/17 06:51:01;;;;;;;;;;;;;;;17.15;58.14;98980.34;4426966;32;19985;-88
2022/09/17 06:53:28;;;;;;;;;;;;;;;17.02;59.77;98994.63;4429178;32;19989;-87
2022/09/17 06:55:56;;;;;;;;;;;;;;;17.13;58.21;98984.78;4429643;32;19981;-85
2022/09/17 06:58:23;;;;;;;;;;;;;;;17.48;56.85;98988.25;4429977;32;19985;-82
2022/09/17 07:00:50;;;;;;;;;;;;;;;17.59;56.38;98980.13;4429880;32;20004;-79
2022/09/17 07:03:18;;;;;;;;;;;;;;;17.48;56.05;98983.00;4429361;32;19969;-83
2022/09/17 07:05:48;;;;;;;;;;;;;;;17.30;56.13;98979.13;4429371;32;20380;-79
2022/09/17 07:08:16;;;;;;;;;;;;;;;17.37;56.39;98979.81;4429188;32;19981;-86
2022/09/17 07:10:43;;;;;;;;;;;;;;;17.40;57.18;98983.22;4429121;32;19977;-80
2022/09/17 07:13:10;;;;;;;;;;;;;;;17.45;55.75;98993.56;4427730;32;20289;-80
2022/09/17 07:15:39;;;;;;;;;;;;;;;17.49;55.52;98987.37;4425762;32;19998;-81
2022/09/17 07:18:10;;;;;;;;;;;;;;;17.47;55.15;98975.22;4429199;32;19986;-82
2022/09/17 07:20:38;;;;;;;;;;;;;;;17.42;55.66;98957.00;4428453;32;19989;-80
2022/09/17 07:23:04;;;;;;;;;;;;;;;17.39;55.53;98952.72;4428339;32;20459;-80
2022/09/17 07:25:31;;;;;;;;;;;;;;;17.19;57.35;98960.22;4429531;32;19981;-81
2022/09/17 07:27:58;;;;;;;;;;;;;;;17.20;58.23;98968.03;4427367;32;19989;-81
2022/09/17 07:30:25;;;;;;;;;;;;;;;17.25;57.96;98969.66;4429289;32;19997;-81
2022/09/17 07:32:52;;;;;;;;;;;;;;;17.20;57.89;98972.41;4429895;32;19996;-80
2022/09/17 07:35:20;;;;;;;;;;;;;;;17.56;56.07;98975.84;4429757;32;20084;-81
2022/09/17 07:37:47;;;;;;;;;;;;;;;17.81;55.37;98975.22;4430160;32;19985;-80
2022/09/17 07:40:14;;;;;;;;;;;;;;;17.85;55.55;98971.59;4429713;32;20031;-85
2022/09/17 07:42:41;;;;;;;;;;;;;;;17.72;55.44;98980.66;4429094;32;20023;-88
2022/09/17 07:45:08;;;;;;;;;;;;;;;17.85;53.90;98982.94;4429976;32;20020;-83
2022/09/17 07:47:39;;;;;;;;;;;;;;;17.81;54.42;98990.94;4426733;32;19989;-82
2022/09/17 07:50:07;;;;;;;;;;;;;;;17.87;54.38;99001.25;4425241;32;19985;-88
2022/09/17 07:52:33;;;;;;;;;;;;;;;18.00;53.14;98997.38;4423368;32;20274;-87
2022/09/17 07:55:00;;;;;;;;;;;;;;;17.89;52.79;98988.94;4420643;32;19982;-80
2022/09/17 07:57:27;;;;;;;;;;;;;;;17.84;53.62;98988.22;4419839;32;20747;-85
2022/09/17 07:59:54;;;;;;;;;;;;;;;17.95;53.05;98994.00;4422629;32;20372;-82
2022/09/17 08:02:21;;;;;;;;;;;;;;;17.79;53.76;98992.72;4416564;32;19978;-84
2022/09/17 08:04:50;;;;;;;;;;;;;;;17.79;53.05;98992.72;4419756;32;20021;-81
2022/09/17 08:07:17;;;;;;;;;;;;;;;17.60;54.83;98993.16;4429295;32;20039;-86
2022/09/17 08:09:44;;;;;;;;;;;;;;;17.44;56.81;99010.16;4429733;32;20007;-86
2022/09/17 08:12:10;;;;;;;;;;;;;;;17.75;53.98;99023.31;4428963;32;19992;-84
2022/09/17 08:14:37;;;;;;;;;;;;;;;17.55;54.40;99030.81;4428964;32;20303;-85
2022/09/17 08:17:05;;;;;;;;;;;;;;;17.85;53.14;99034.44;4428625;32;20000;-86
2022/09/17 08:19:32;;;;;;;;;;;;;;;17.48;54.15;99030.09;4425774;32;19977;-84
2022/09/17 08:21:59;;;;;;;;;;;;;;;17.46;55.07;99026.69;4429261;32;20642;-84
2022/09/17 08:24:26;;;;;;;;;;;;;;;17.72;54.17;99038.25;4429004;32;20698;-84
2022/09/17 08:26:53;;;;;;;;;;;;;;;17.76;54.52;99038.13;4428840;32;20008;-86
2022/09/17 08:29:20;;;;;;;;;;;;;;;17.81;54.09;99041.53;4429183;32;20410;-86
2022/09/17 08:31:47;;;;;;;;;;;;;;;17.72;54.31;99038.25;4428599;32;20023;-85
2022/09/17 08:34:14;;;;;;;;;;;;;;;17.88;53.76;99044.84;4429277;32;20124;-85
2022/09/17 08:36:42;;;;;;;;;;;;;;;17.90;53.08;99045.66;4427957;32;19974;-86
2022/09/17 08:39:10;;;;;;;;;;;;;;;17.61;53.67;99039.41;4429212;32;19977;-85
2022/09/17 08:41:51;;;;;;;;;;;;;;;17.64;53.55;99034.09;4429022;32;21170;-85
2022/09/17 08:44:33;;;;;;;;;;;;;;;17.38;55.01;99019.00;4426506;32;19978;-87
2022/09/17 08:47:05;;;;;;;;;;;;;;;17.65;54.15;99017.47;4427525;32;19981;-83
2022/09/17 08:49:36;;;;;;;;;;;;;;;17.78;52.97;99006.72;4427464;32;20023;-86
2022/09/17 08:52:10;;;;;;;;;;;;;;;17.69;53.85;98997.31;4427157;32;20339;-86
2022/09/17 08:54:37;;;;;;;;;;;;;;;17.71;53.82;99002.50;4427645;32;20604;-86
2022/09/17 08:57:08;;;;;;;;;;;;;;;17.45;55.09;99009.25;4428628;32;19982;-85
2022/09/17 08:59:40;;;;;;;;;;;;;;;17.66;54.47;99013.94;4420629;32;20106;-85
2022/09/17 09:02:26;;;;;;;;;;;;;;;17.65;54.31;99022.72;4428869;32;20324;-86
2022/09/17 09:04:55;;;;;;;;;;;;;;;17.51;56.57;99024.81;4275260;32;5001244;-86
2022/09/17 09:07:24;;;;;;;;;;;;;;;17.50;54.67;99033.56;4413108;32;20008;-84
2022/09/17 09:10:03;;;;;;;;;;;;;;;17.85;52.30;99024.81;4426330;32;20004;-87
2022/09/17 09:12:32;;;;;;;;;;;;;;;17.50;53.94;99023.09;4427172;32;19992;-83
2022/09/17 09:15:00;;;;;;;;;;;;;;;17.57;54.54;99029.03;4426916;32;20043;-87
2022/09/17 09:17:39;;;;;;;;;;;;;;;17.62;54.09;99028.03;4427366;32;20720;-88
2022/09/17 09:20:16;;;;;;;;;;;;;;;17.65;54.72;99027.94;4427317;32;20444;-86
2022/09/17 09:22:47;;;;;;;;;;;;;;;17.81;53.35;99022.34;4426389;32;19982;-87
2022/09/17 09:25:15;;;;;;;;;;;;;;;17.88;53.29;99024.75;4427350;32;20012;-91
2022/09/17 09:27:54;;;;;;;;;;;;;;;17.72;53.30;99022.56;4428262;32;20012;-90
2022/09/17 09:30:23;;;;;;;;;;;;;;;17.92;52.88;99019.44;4427940;32;20293;-84
2022/09/17 09:33:09;;;;;;;;;;;;;;;17.87;53.32;99024.81;4424597;32;20372;-87
2022/09/17 09:35:37;;;;;;;;;;;;;;;17.99;51.92;99016.59;4427913;32;19981;-86
2022/09/17 09:38:19;;;;;;;;;;;;;;;17.81;52.66;99024.97;4426651;32;20003;-88
2022/09/17 09:41:09;;;;;;;;;;;;;;;18.04;51.88;99019.94;4428499;32;19997;-88
2022/09/17 09:43:41;;;;;;;;;;;;;;;17.83;53.42;99021.38;4423929;32;19981;-86
2022/09/17 09:46:44;;;;;;;;;;;;;;;18.03;52.20;99028.72;4426689;32;20619;-90
2022/09/17 09:49:15;;;;;;;;;;;;;;;17.96;51.70;99032.37;4425882;32;20031;-88
2022/09/17 09:51:52;;;;;;;;;;;;;;;17.96;52.40;99021.91;4411268;32;19986;-88
2022/09/17 09:54:37;;;;;;;;;;;;;;;17.73;52.93;99026.88;4422796;32;19974;-90
2022/09/17 09:57:17;;;;;;;;;;;;;;;18.00;52.01;99028.81;4430434;32;19989;-86
2022/09/17 09:59:44;;;;;;;;;;;;;;;18.04;51.41;99040.91;4428740;32;19969;-86
2022/09/17 10:02:11;;;;;;;;;;;;;;;17.56;53.07;99046.50;4428789;32;20458;-83
2022/09/17 10:04:38;;;;;;;;;;;;;;;17.80;51.65;99041.53;4429204;32;19996;-84
2022/09/17 10:07:05;;;;;;;;;;;;;;;17.88;52.17;99031.75;4429873;32;20012;-83
2022/09/17 10:09:34;;;;;;;;;;;;;;;18.11;52.19;99016.25;4428792;32;20012;-84
2022/09/17 10:12:01;;;;;;;;;;;;;;;18.11;50.96;99023.25;4428342;32;19985;-85
2022/09/17 10:14:28;;;;;;;;;;;;;;;18.18;49.39;99011.69;4426172;32;20004;-85
2022/09/17 10:17:15;;;;;;;;;;;;;;;17.90;50.46;99011.63;4413454;32;20323;-88
2022/09/17 10:19:42;;;;;;;;;;;;;;;18.19;48.93;99023.03;4412979;32;20015;-85
2022/09/17 10:22:21;;;;;;;;;;;;;;;18.15;48.71;99010.94;4415229;32;20049;-89
2022/09/17 10:24:48;;;;;;;;;;;;;;;18.10;48.36;98998.84;4413655;32;19992;-86
2022/09/17 10:27:16;;;;;;;;;;;;;;;17.84;50.36;98988.22;4418541;32;19973;-88
2022/09/17 10:29:45;;;;;;;;;;;;;;;17.74;49.74;98968.38;4430582;32;20000;-88
2022/09/17 10:32:16;;;;;;;;;;;;;;;18.12;47.98;98955.13;4429599;32;20000;-89
2022/09/17 10:34:56;;;;;;;;;;;;;;;18.00;46.85;98981.66;4430198;32;19981;-86
2022/09/17 10:37:41;;;;;;;;;;;;;;;18.10;46.28;98985.75;4429866;32;19985;-80
2022/09/17 10:40:17;;;;;;;;;;;;;;;18.13;46.04;98998.75;4430206;32;20768;-87
2022/09/17 10:42:45;;;;;;;;;;;;;;;18.13;45.75;98998.75;4430122;32;19990;-88
2022/09/17 10:45:28;;;;;;;;;;;;;;;17.91;46.44;98984.53;4430121;32;20004;-86
2022/09/17 10:47:58;;;;;;;;;;;;;;;17.87;47.13;98982.91;4427487;32;19985;-86
2022/09/17 10:50:26;;;;;;;;;;;;;;;17.88;46.41;98961.06;4428116;32;19977;-82
2022/09/17 10:52:54;;;;;;;;;;;;;;;17.91;46.72;98940.03;4430190;32;19998;-88
2022/09/17 10:55:26;;;;;;;;;;;;;;;18.03;46.51;98933.59;4428144;32;19992;-84
2022/09/17 10:58:08;;;;;;;;;;;;;;;18.11;46.33;98921.97;4413017;32;19977;-87
2022/09/17 11:00:51;;;;;;;;;;;;;;;18.25;46.45;98912.84;4414558;32;19993;-85
2022/09/17 11:03:24;;;;;;;;;;;;;;;18.01;47.71;98919.66;4417966;32;19996;-81
2022/09/17 11:06:09;;;;;;;;;;;;;;;17.84;48.60;98934.09;4423001;32;20000;-81
2022/09/17 11:08:40;;;;;;;;;;;;;;;17.97;47.80;98950.31;4422243;32;19993;-83
2022/09/17 11:11:10;;;;;;;;;;;;;;;17.79;49.50;98966.53;4422245;32;20004;-79
2022/09/17 11:13:44;;;;;;;;;;;;;;;17.86;49.60;98973.31;4421985;32;19994;-81
2022/09/17 11:16:31;;;;;;;;;;;;;;;18.13;47.47;98962.06;4426835;32;20000;-83
2022/09/17 11:19:18;;;;;;;;;;;;;;;18.06;48.27;98952.69;4417807;32;20064;-79
2022/09/17 11:21:47;;;;;;;;;;;;;;;17.78;48.39;98964.84;4412874;32;20049;-79
2022/09/17 11:24:19;;;;;;;;;;;;;;;17.74;49.20;98989.31;4422439;32;19989;-79
2022/09/17 11:27:02;;;;;;;;;;;;;;;17.49;48.79;99000.44;4420069;32;19982;-88
2022/09/17 11:29:47;;;;;;;;;;;;;;;17.72;48.37;99006.84;4422310;32;20001;-87
2022/09/17 11:32:20;;;;;;;;;;;;;;;17.84;46.94;98990.84;4418365;32;20000;-78
2022/09/17 11:35:01;;;;;;;;;;;;;;;17.87;46.88;98969.81;4420967;32;20335;-79
2022/09/17 11:37:35;;;;;;;;;;;;;;;17.89;47.68;98968.00;4424469;32;19988;-79
2022/09/17 11:40:04;;;;;;;;;;;;;;;17.90;47.56;98969.75;4419758;32;19985;-84
2022/09/17 11:42:59;;;;;;;;;;;;;;;17.81;49.36;98964.75;4419090;32;19977;-89
2022/09/17 11:45:26;;;;;;;;;;;;;;;18.17;48.15;98957.59;4408892;32;20035;-81
2022/09/17 11:48:04;;;;;;;;;;;;;;;17.94;49.06;98955.66;4430095;32;20397;-81
2022/09/17 11:50:36;;;;;;;;;;;;;;;18.00;49.08;98937.16;4422283;32;20001;-79
2022/09/17 11:53:06;;;;;;;;;;;;;;;18.08;48.57;98932.53;4424511;32;20865;-82
2022/09/17 11:55:35;;;;;;;;;;;;;;;18.17;47.06;98909.59;4421220;32;19993;-80
2022/09/17 11:58:08;;;;;;;;;;;;;;;18.18;45.80;98900.84;4429503;32;20053;-85
2022/09/17 12:00:37;;;;;;;;;;;;;;;17.96;47.21;98895.37;4425216;32;20012;-80
2022/09/17 12:03:22;;;;;;;;;;;;;;;18.02;46.63;98875.09;4418325;32;19981;-83
2022/09/17 12:05:56;;;;;;;;;;;;;;;18.20;45.65;98872.84;4423737;32;19985;-83
2022/09/17 12:08:23;;;;;;;;;;;;;;;18.18;46.04;98869.41;4424856;32;19992;-80
2022/09/17 12:10:50;;;;;;;;;;;;;;;18.13;46.21;98867.78;4416712;32;20044;-79
2022/09/17 12:13:28;;;;;;;;;;;;;;;18.02;46.87;98864.63;4416548;32;20361;-80
2022/09/17 12:16:02;;;;;;;;;;;;;;;18.04;46.88;98868.06;4418394;32;20367;-80
2022/09/17 12:18:32;;;;;;;;;;;;;;;18.20;45.97;98862.38;4414911;32;19992;-79
2022/09/17 12:21:00;;;;;;;;;;;;;;;17.98;45.51;98852.53;4424811;32;20057;-81
2022/09/17 12:23:32;;;;;;;;;;;;;;;17.79;46.27;98846.12;4424409;32;20011;-81
2022/09/17 12:26:14;;;;;;;;;;;;;;;17.88;46.73;98843.25;4421608;32;20406;-87
2022/09/17 12:29:00;;;;;;;;;;;;;;;17.80;47.65;98837.34;4423583;32;19999;-87
2022/09/17 12:31:33;;;;;;;;;;;;;;;17.89;47.04;98834.47;4425459;32;20415;-87
2022/09/17 12:34:15;;;;;;;;;;;;;;;17.59;48.05;98829.22;4422766;32;20327;-86
2022/09/17 12:36:54;;;;;;;;;;;;;;;17.65;47.82;98836.88;4420262;32;19994;-80
2022/09/17 12:39:32;;;;;;;;;;;;;;;17.98;45.97;98833.34;4421675;32;19997;-82
2022/09/17 12:42:04;;;;;;;;;;;;;;;17.84;45.97;98828.53;4420440;32;19982;-86
2022/09/17 12:44:34;;;;;;;;;;;;;;;17.78;46.91;98808.62;4418196;32;20083;-87
2022/09/17 12:47:22;;;;;;;;;;;;;;;17.74;47.13;98811.31;4421095;32;20814;-83
2022/09/17 12:49:49;;;;;;;;;;;;;;;17.80;46.73;98822.50;4425683;32;19982;-79
2022/09/17 12:52:34;;;;;;;;;;;;;;;17.97;44.32;98829.88;4422058;32;20000;-79
2022/09/17 12:55:09;;;;;;;;;;;;;;;17.71;46.20;98837.59;4421919;32;20441;-81
2022/09/17 12:57:36;;;;;;;;;;;;;;;18.04;44.63;98841.87;4423892;32;20000;-80
2022/09/17 13:00:05;;;;;;;;;;;;;;;18.02;44.27;98854.12;4424602;32;19996;-80
2022/09/17 13:02:36;;;;;;;;;;;;;;;17.88;45.40;98848.47;4431096;32;19973;-89
2022/09/17 13:05:10;;;;;;;;;;;;;;;17.98;44.76;98849.91;4419681;32;19977;-86